createdAt,value
2018-09-10T00:01:12.829Z,14.13
2018-09-10T00:03:42.149Z,11.40
2018-09-10T00:06:10.658Z,11.90
2018-09-10T00:08:39.167Z,11.87
2018-09-10T00:11:07.837Z,13.27
2018-09-10T00:13:36.339Z,11.60
2018-09-10T00:16:04.932Z,11.80
2018-09-10T00:18:33.425Z,12.17
2018-09-10T00:21:01.947Z,13.37
2018-09-10T00:23:30.718Z,12.57
2018-09-10T00:25:59.250Z,11.97
2018-09-10T00:28:27.787Z,16.13
2018-09-10T00:30:56.615Z,12.97
2018-09-10T00:33:25.163Z,12.77
2018-09-10T00:35:53.651Z,10.33
2018-09-10T00:38:22.155Z,9.73
2018-09-10T00:40:50.763Z,11.40
2018-09-10T00:43:19.427Z,10.63
2018-09-10T00:45:48.488Z,11.53
2018-09-10T00:48:16.959Z,13.13
2018-09-10T00:50:45.463Z,14.73
2018-09-10T00:53:13.973Z,11.33
2018-09-10T00:55:42.602Z,10.70
2018-09-10T00:58:11.081Z,11.97
2018-09-10T01:00:39.791Z,13.30
2018-09-10T01:03:08.375Z,13.03
2018-09-10T01:05:37.088Z,13.83
2018-09-10T01:08:05.617Z,12.73
2018-09-10T01:10:34.137Z,11.50
2018-09-10T01:13:02.700Z,15.77
2018-09-10T01:15:31.161Z,11.43
2018-09-10T01:17:59.852Z,17.37
2018-09-10T01:20:29.163Z,13.67
2018-09-10T01:22:57.884Z,15.30
2018-09-10T01:25:26.378Z,12.83
2018-09-10T01:30:20.823Z,16.00
2018-09-10T01:32:49.486Z,14.07
2018-09-10T01:35:17.976Z,14.77
2018-09-10T01:37:46.518Z,21.50
2018-09-10T01:40:15.006Z,14.47
2018-09-10T01:42:43.460Z,18.47
2018-09-10T01:45:12.350Z,16.13
2018-09-10T01:47:40.809Z,16.83
2018-09-10T01:50:09.484Z,17.03
2018-09-10T01:52:38.001Z,15.90
2018-09-10T01:55:06.605Z,19.33
2018-09-10T01:57:35.220Z,17.23
2018-09-10T02:00:04.128Z,19.63
2018-09-10T02:02:32.862Z,13.73
2018-09-10T02:05:01.362Z,18.13
2018-09-10T02:07:29.836Z,16.53
2018-09-10T02:09:58.306Z,16.03
2018-09-10T02:12:26.938Z,16.83
2018-09-10T02:14:56.518Z,15.93
2018-09-10T02:17:25.538Z,20.90
2018-09-10T02:19:54.390Z,17.87
2018-09-10T02:22:23.201Z,19.90
2018-09-10T02:24:51.901Z,17.07
2018-09-10T02:27:20.589Z,20.03
2018-09-10T02:29:49.027Z,17.40
2018-09-10T02:32:17.667Z,14.13
2018-09-10T02:34:46.341Z,15.60
2018-09-10T02:37:14.996Z,18.37
2018-09-10T02:39:43.494Z,16.03
2018-09-10T02:42:12.049Z,17.33
2018-09-10T02:44:40.462Z,17.97
2018-09-10T02:47:09.104Z,12.80
2018-09-10T02:49:37.806Z,14.03
2018-09-10T02:52:06.556Z,12.67
2018-09-10T02:54:35.250Z,16.60
2018-09-10T02:57:04.325Z,14.60
2018-09-10T02:59:33.393Z,16.03
2018-09-10T03:02:01.851Z,19.17
2018-09-10T03:04:30.483Z,19.13
2018-09-10T03:06:58.973Z,16.77
2018-09-10T03:09:27.455Z,17.13
2018-09-10T03:11:56.267Z,19.53
2018-09-10T03:14:24.969Z,15.57
2018-09-10T03:16:53.400Z,14.50
2018-09-10T03:19:22.047Z,21.10
2018-09-10T03:21:50.501Z,17.90
2018-09-10T03:24:19.037Z,12.93
2018-09-10T03:26:47.461Z,16.83
2018-09-10T03:29:15.963Z,14.40
2018-09-10T03:31:44.935Z,14.47
2018-09-10T03:34:13.465Z,15.60
2018-09-10T03:36:41.921Z,13.57
2018-09-10T03:39:11.037Z,14.57
2018-09-10T03:41:39.643Z,17.80
2018-09-10T03:44:08.349Z,14.43
2018-09-10T03:46:37.326Z,16.30
2018-09-10T03:49:05.876Z,16.67
2018-09-10T03:51:34.605Z,16.60
2018-09-10T03:54:03.501Z,22.90
2018-09-10T03:56:32.327Z,17.83
2018-09-10T03:59:00.810Z,17.40
2018-09-10T04:01:29.510Z,22.40
2018-09-10T04:03:58.009Z,20.27
2018-09-10T04:06:26.484Z,20.20
2018-09-10T04:08:54.934Z,21.40
2018-09-10T04:11:23.451Z,22.17
2018-09-10T04:13:52.152Z,17.57
2018-09-10T04:16:20.856Z,19.27
2018-09-10T04:18:49.880Z,19.97
2018-09-10T04:21:18.374Z,18.17
2018-09-10T04:23:46.925Z,16.93
2018-09-10T04:26:15.565Z,17.53
2018-09-10T04:28:44.268Z,18.80
2018-09-10T04:31:12.826Z,17.80
2018-09-10T04:33:42.070Z,16.93
2018-09-10T04:36:11.156Z,18.90
2018-09-10T04:38:40.062Z,18.17
2018-09-10T04:41:08.642Z,19.80
2018-09-10T04:43:37.546Z,19.47
2018-09-10T04:46:06.280Z,22.20
2018-09-10T04:48:35.278Z,14.97
2018-09-10T04:51:04.100Z,21.57
2018-09-10T04:53:36.472Z,17.17
2018-09-10T04:56:05.350Z,16.37
2018-09-10T04:58:34.208Z,23.27
2018-09-10T05:01:03.646Z,16.77
2018-09-10T05:03:32.470Z,19.23
2018-09-10T05:06:17.330Z,18.73
2018-09-10T05:08:46.181Z,16.60
2018-09-10T05:11:15.330Z,13.13
2018-09-10T05:13:44.627Z,17.20
2018-09-10T05:16:13.590Z,18.07
2018-09-10T05:18:42.774Z,13.43
2018-09-10T05:21:11.893Z,14.60
2018-09-10T05:23:40.808Z,15.10
2018-09-10T05:26:09.807Z,15.00
2018-09-10T05:28:39.290Z,14.33
2018-09-10T05:31:08.215Z,16.47
2018-09-10T05:33:37.499Z,17.43
2018-09-10T05:36:11.565Z,20.13
2018-09-10T05:41:25.111Z,19.67
2018-09-10T05:43:54.899Z,21.00
2018-09-10T05:46:24.295Z,20.57
2018-09-10T05:48:53.319Z,14.03
2018-09-10T05:51:27.268Z,15.13
2018-09-10T05:53:57.669Z,18.67
2018-09-10T05:56:26.687Z,20.57
2018-09-10T05:58:55.707Z,16.13
2018-09-10T06:01:25.083Z,19.57
2018-09-10T06:03:54.121Z,18.80
2018-09-10T06:06:23.050Z,18.00
2018-09-10T06:08:52.019Z,20.03
2018-09-10T06:11:20.884Z,18.67
2018-09-10T06:13:49.744Z,16.23
2018-09-10T06:16:20.367Z,18.00
2018-09-10T06:18:49.436Z,18.60
2018-09-10T06:21:18.337Z,18.17
2018-09-10T06:23:47.456Z,13.87
2018-09-10T06:26:18.328Z,17.17
2018-09-10T06:28:47.875Z,16.67
2018-09-10T06:31:17.064Z,15.83
2018-09-10T06:33:46.256Z,17.67
2018-09-10T06:36:15.535Z,16.00
2018-09-10T06:38:53.824Z,17.80
2018-09-10T06:41:22.833Z,17.13
2018-09-10T06:43:51.820Z,16.17
2018-09-10T06:46:20.741Z,19.83
2018-09-10T06:48:49.885Z,18.07
2018-09-10T06:51:18.765Z,15.57
2018-09-10T06:53:47.840Z,18.97
2018-09-10T06:56:17.018Z,15.97
2018-09-10T06:58:45.997Z,17.17
2018-09-10T07:01:14.953Z,16.40
2018-09-10T07:03:43.831Z,17.47
2018-09-10T07:06:12.962Z,15.03
2018-09-10T07:08:42.223Z,15.43
2018-09-10T07:11:11.672Z,15.57
2018-09-10T07:13:40.546Z,18.53
2018-09-10T07:16:09.514Z,17.67
2018-09-10T07:18:38.498Z,18.53
2018-09-10T07:21:07.430Z,15.77
2018-09-10T07:23:36.426Z,14.37
2018-09-10T07:26:05.393Z,16.03
2018-09-10T07:28:34.240Z,19.60
2018-09-10T07:31:03.055Z,18.53
2018-09-10T07:33:31.999Z,16.07
2018-09-10T07:36:00.861Z,16.20
2018-09-10T07:38:29.691Z,16.77
2018-09-10T07:40:58.662Z,16.20
2018-09-10T07:43:27.753Z,14.93
2018-09-10T07:45:56.443Z,18.53
2018-09-10T07:48:25.194Z,18.13
2018-09-10T07:50:54.147Z,19.13
2018-09-10T07:53:23.111Z,15.00
2018-09-10T07:55:51.963Z,15.40
2018-09-10T07:58:20.776Z,17.50
2018-09-10T08:00:49.735Z,15.10
2018-09-10T08:03:18.641Z,18.17
2018-09-10T08:05:48.089Z,10.50
2018-09-10T08:08:16.830Z,13.37
2018-09-10T08:10:45.572Z,13.03
2018-09-10T08:13:14.302Z,9.77
2018-09-10T08:15:43.026Z,15.00
2018-09-10T08:18:14.923Z,14.07
2018-09-10T08:20:45.270Z,12.83
2018-09-10T08:23:14.685Z,10.53
2018-09-10T08:25:43.440Z,13.03
2018-09-10T08:28:12.058Z,12.90
2018-09-10T08:30:40.759Z,10.10
2018-09-10T08:33:09.445Z,14.57
2018-09-10T08:35:38.362Z,15.33
2018-09-10T08:38:07.061Z,13.00
2018-09-10T08:40:35.770Z,13.67
2018-09-10T08:43:05.223Z,9.23
2018-09-10T08:45:34.602Z,10.30
2018-09-10T08:48:04.685Z,12.53
2018-09-10T08:50:33.683Z,9.67
2018-09-10T08:53:02.637Z,13.27
2018-09-10T08:55:31.569Z,10.10
2018-09-10T08:58:00.273Z,7.53
2018-09-10T09:00:29.277Z,11.87
2018-09-10T09:02:58.040Z,9.87
2018-09-10T09:05:27.077Z,9.17
2018-09-10T09:07:55.938Z,11.70
2018-09-10T09:10:24.937Z,8.83
2018-09-10T09:12:53.683Z,5.77
2018-09-10T09:15:22.526Z,10.13
2018-09-10T09:17:51.381Z,7.87
2018-09-10T09:20:20.129Z,10.00
2018-09-10T09:22:49.266Z,8.10
2018-09-10T09:25:18.068Z,6.63
2018-09-10T09:27:46.849Z,9.67
2018-09-10T09:30:15.723Z,7.60
2018-09-10T09:32:45.763Z,8.90
2018-09-10T09:35:14.482Z,9.83
2018-09-10T09:37:48.654Z,5.10
2018-09-10T09:40:22.674Z,5.43
2018-09-10T09:42:56.512Z,6.70
2018-09-10T09:45:30.445Z,5.97
2018-09-10T09:47:59.201Z,5.47
2018-09-10T09:50:27.945Z,3.83
2018-09-10T09:52:57.806Z,5.23
2018-09-10T09:55:26.789Z,4.70
2018-09-10T09:57:55.614Z,6.87
2018-09-10T10:00:29.562Z,5.50
2018-09-10T10:03:02.533Z,5.70
2018-09-10T10:05:31.338Z,4.23
2018-09-10T10:08:00.123Z,4.97
2018-09-10T10:10:28.977Z,4.30
2018-09-10T10:12:57.978Z,5.90
2018-09-10T10:15:26.830Z,4.20
2018-09-10T10:17:55.574Z,4.90
2018-09-10T10:20:24.493Z,8.70
2018-09-10T10:22:53.526Z,4.07
2018-09-10T10:25:22.528Z,4.90
2018-09-10T10:27:51.670Z,3.93
2018-09-10T10:30:27.373Z,4.10
2018-09-10T10:32:56.289Z,3.43
2018-09-10T10:35:25.004Z,4.53
2018-09-10T10:37:53.840Z,3.90
2018-09-10T10:40:22.504Z,4.60
2018-09-10T10:42:51.195Z,4.93
2018-09-10T10:45:19.902Z,5.43
2018-09-10T10:47:48.896Z,4.77
2018-09-10T10:50:17.964Z,3.33
2018-09-10T10:52:46.724Z,6.57
2018-09-10T10:55:17.403Z,3.80
2018-09-10T10:57:46.124Z,4.33
2018-09-10T11:00:14.738Z,3.47
2018-09-10T11:02:43.402Z,4.70
2018-09-10T11:05:12.261Z,5.63
2018-09-10T11:07:40.971Z,4.97
2018-09-10T11:10:09.897Z,4.43
2018-09-10T11:12:38.491Z,4.60
2018-09-10T11:15:07.351Z,5.00
2018-09-10T11:17:36.142Z,5.27
2018-09-10T11:20:05.496Z,3.60
2018-09-10T11:22:34.109Z,3.77
2018-09-10T11:25:02.918Z,4.70
2018-09-10T11:27:31.710Z,5.53
2018-09-10T11:30:00.376Z,3.77
2018-09-10T11:32:29.241Z,4.77
2018-09-10T11:34:58.331Z,4.20
2018-09-10T11:37:27.142Z,5.97
2018-09-10T11:39:57.337Z,6.57
2018-09-10T11:42:26.059Z,5.63
2018-09-10T11:44:54.701Z,6.07
2018-09-10T11:47:23.366Z,4.23
2018-09-10T11:49:52.063Z,3.73
2018-09-10T11:52:20.748Z,6.87
2018-09-10T11:54:50.374Z,6.60
2018-09-10T11:57:19.115Z,5.13
2018-09-10T11:59:47.723Z,6.93
2018-09-10T12:02:23.055Z,8.43
2018-09-10T12:04:51.766Z,6.17
2018-09-10T12:07:20.694Z,2.90
2018-09-10T12:09:49.417Z,6.53
2018-09-10T12:12:18.101Z,5.00
2018-09-10T12:14:46.862Z,5.03
2018-09-10T12:17:15.738Z,3.87
2018-09-10T12:19:44.657Z,5.67
2018-09-10T12:22:13.508Z,7.27
2018-09-10T12:24:43.725Z,3.97
2018-09-10T12:27:12.451Z,4.83
2018-09-10T12:29:41.350Z,6.63
2018-09-10T12:32:10.223Z,5.80
2018-09-10T12:34:39.032Z,5.27
2018-09-10T12:37:07.845Z,5.70
2018-09-10T12:39:37.006Z,6.07
2018-09-10T12:42:06.022Z,6.10
2018-09-10T12:44:34.719Z,6.10
2018-09-10T12:47:03.453Z,6.13
2018-09-10T12:49:31.985Z,5.17
2018-09-10T12:52:00.528Z,4.47
2018-09-10T12:54:29.260Z,6.13
2018-09-10T12:56:58.155Z,5.67
2018-09-10T12:59:27.004Z,6.37
2018-09-10T13:01:55.767Z,7.00
2018-09-10T13:04:24.437Z,7.07
2018-09-10T13:06:53.022Z,8.20
2018-09-10T13:09:21.970Z,6.00
2018-09-10T13:11:50.721Z,4.43
2018-09-10T13:14:19.434Z,6.77
2018-09-10T13:16:52.704Z,6.57
2018-09-10T13:19:21.441Z,6.87
2018-09-10T13:21:50.460Z,5.97
2018-09-10T13:24:19.293Z,4.80
2018-09-10T13:26:48.105Z,6.27
2018-09-10T13:29:16.769Z,7.03
2018-09-10T13:31:45.432Z,4.80
2018-09-10T13:34:14.654Z,7.50
2018-09-10T13:36:43.417Z,6.67
2018-09-10T13:39:12.025Z,6.00
2018-09-10T13:41:40.699Z,6.47
2018-09-10T13:44:09.529Z,8.40
2018-09-10T13:46:38.267Z,6.60
2018-09-10T13:49:07.143Z,7.40
2018-09-10T13:51:36.174Z,7.63
2018-09-10T13:54:04.921Z,10.37
2018-09-10T13:56:33.639Z,8.23
2018-09-10T13:59:02.390Z,7.87
2018-09-10T14:01:31.385Z,10.10
2018-09-10T14:04:00.081Z,7.03
2018-09-10T14:06:28.879Z,7.37
2018-09-10T14:08:57.762Z,7.17
2018-09-10T14:11:26.531Z,5.80
2018-09-10T14:13:56.684Z,4.40
2018-09-10T14:16:25.288Z,5.03
2018-09-10T14:18:54.040Z,4.80
2018-09-10T14:21:23.493Z,4.23
2018-09-10T14:23:52.201Z,4.80
2018-09-10T14:26:20.961Z,4.17
2018-09-10T14:28:50.377Z,4.17
2018-09-10T14:31:19.316Z,4.43
2018-09-10T14:33:48.227Z,3.50
2018-09-10T14:36:24.308Z,4.37
2018-09-10T14:38:53.127Z,5.00
2018-09-10T14:41:21.958Z,4.90
2018-09-10T14:43:51.023Z,5.63
2018-09-10T14:46:20.021Z,4.53
2018-09-10T14:48:48.845Z,3.67
2018-09-10T14:51:17.975Z,3.63
2018-09-10T14:53:46.944Z,3.03
2018-09-10T14:56:19.516Z,5.17
2018-09-10T14:58:48.196Z,2.37
2018-09-10T15:01:17.081Z,5.43
2018-09-10T15:03:45.834Z,4.10
2018-09-10T15:06:14.789Z,2.97
2018-09-10T15:08:43.839Z,2.43
2018-09-10T15:11:14.889Z,3.30
2018-09-10T15:13:43.974Z,5.13
2018-09-10T15:16:12.867Z,3.90
2018-09-10T15:18:42.437Z,5.50
2018-09-10T15:21:11.403Z,5.93
2018-09-10T15:23:43.341Z,3.57
2018-09-10T15:26:12.123Z,3.87
2018-09-10T15:28:41.205Z,4.80
2018-09-10T15:31:09.872Z,4.37
2018-09-10T15:33:38.522Z,4.57
2018-09-10T15:36:07.715Z,5.60
2018-09-10T15:38:36.424Z,7.67
2018-09-10T15:41:06.042Z,6.33
2018-09-10T15:43:35.081Z,4.47
2018-09-10T15:46:04.039Z,4.17
2018-09-10T15:48:36.070Z,5.57
2018-09-10T15:51:05.126Z,5.60
2018-09-10T15:53:34.283Z,6.03
2018-09-10T15:56:03.224Z,6.30
2018-09-10T15:58:32.232Z,3.13
2018-09-10T16:01:01.521Z,2.97
2018-09-10T16:03:30.470Z,3.83
2018-09-10T16:05:59.229Z,5.57
2018-09-10T16:08:28.501Z,5.00
2018-09-10T16:11:02.538Z,5.53
2018-09-10T16:13:31.288Z,5.90
2018-09-10T16:15:59.976Z,6.07
2018-09-10T16:18:28.728Z,6.67
2018-09-10T16:20:57.761Z,5.53
2018-09-10T16:23:26.584Z,5.27
2018-09-10T16:25:55.447Z,5.80
2018-09-10T16:28:24.198Z,3.97
2018-09-10T16:30:53.141Z,4.50
2018-09-10T16:33:21.980Z,6.47
2018-09-10T16:35:50.613Z,4.87
2018-09-10T16:38:19.404Z,4.93
2018-09-10T16:40:48.475Z,5.07
2018-09-10T16:43:17.379Z,6.13
2018-09-10T16:45:46.109Z,4.60
2018-09-10T16:48:14.922Z,5.13
2018-09-10T16:50:44.473Z,6.37
2018-09-10T16:53:13.443Z,5.40
2018-09-10T16:55:42.578Z,5.80
2018-09-10T16:58:11.419Z,4.50
2018-09-10T17:00:44.647Z,5.03
2018-09-10T17:03:14.673Z,5.50
2018-09-10T17:05:43.476Z,4.70
2018-09-10T17:08:12.412Z,4.20
2018-09-10T17:10:41.372Z,4.03
2018-09-10T17:13:10.277Z,3.83
2018-09-10T17:15:39.487Z,4.70
2018-09-10T17:18:08.389Z,4.50
2018-09-10T17:20:37.131Z,3.63
2018-09-10T17:23:05.873Z,4.90
2018-09-10T17:25:38.441Z,6.57
2018-09-10T17:28:07.348Z,3.17
2018-09-10T17:30:36.194Z,4.43
2018-09-10T17:33:05.079Z,2.53
2018-09-10T17:35:33.941Z,4.83
2018-09-10T17:38:02.856Z,2.90
2018-09-10T17:40:31.625Z,5.03
2018-09-10T17:43:00.639Z,4.43
2018-09-10T17:45:29.732Z,3.70
2018-09-10T17:47:58.561Z,5.00
2018-09-10T17:50:27.332Z,3.00
2018-09-10T17:52:56.465Z,3.73
2018-09-10T17:55:25.240Z,6.13
2018-09-10T17:57:53.999Z,2.93
2018-09-10T18:00:22.810Z,4.67
2018-09-10T18:02:51.660Z,3.60
2018-09-10T18:05:20.900Z,3.07
2018-09-10T18:07:49.610Z,2.83
2018-09-10T18:10:19.886Z,3.03
2018-09-10T18:12:48.709Z,3.60
2018-09-10T18:15:17.447Z,2.33
2018-09-10T18:17:46.149Z,2.93
2018-09-10T18:20:15.026Z,3.73
2018-09-10T18:22:43.831Z,5.83
2018-09-10T18:25:12.700Z,3.40
2018-09-10T18:27:41.542Z,4.97
2018-09-10T18:30:10.542Z,3.73
2018-09-10T18:32:45.640Z,3.67
2018-09-10T18:35:14.428Z,6.70
2018-09-10T18:37:43.167Z,2.63
2018-09-10T18:40:12.112Z,3.57
2018-09-10T18:42:40.842Z,1.90
2018-09-10T18:45:09.672Z,4.33
2018-09-10T18:47:38.379Z,4.17
2018-09-10T18:50:07.292Z,2.97
2018-09-10T18:52:36.212Z,3.90
2018-09-10T18:55:05.678Z,3.40
2018-09-10T18:57:34.325Z,5.50
2018-09-10T19:00:03.018Z,4.67
2018-09-10T19:02:31.789Z,4.20
2018-09-10T19:05:00.552Z,2.67
2018-09-10T19:07:29.437Z,5.00
2018-09-10T19:09:58.556Z,4.43
2018-09-10T19:12:27.294Z,3.97
2018-09-10T19:14:55.985Z,4.37
2018-09-10T19:17:24.874Z,4.73
2018-09-10T19:19:53.552Z,6.60
2018-09-10T19:22:22.281Z,5.70
2018-09-10T19:24:51.105Z,5.67
2018-09-10T19:27:20.166Z,6.37
2018-09-10T19:29:49.111Z,4.30
2018-09-10T19:32:18.249Z,7.23
2018-09-10T19:34:47.091Z,5.43
2018-09-10T19:37:15.824Z,5.63
2018-09-10T19:39:44.744Z,5.23
2018-09-10T19:42:13.614Z,4.57
2018-09-10T19:44:42.718Z,4.63
2018-09-10T19:47:11.587Z,5.40
2018-09-10T19:49:40.354Z,5.93
2018-09-10T19:52:09.345Z,5.97
2018-09-10T19:54:38.064Z,5.70
2018-09-10T19:57:06.868Z,5.60
2018-09-10T19:59:36.032Z,7.77
2018-09-10T20:02:04.826Z,6.03
2018-09-10T20:04:33.733Z,5.00
2018-09-10T20:07:02.481Z,4.60
2018-09-10T20:09:31.350Z,5.77
2018-09-10T20:12:00.353Z,5.67
2018-09-10T20:14:29.168Z,3.90
2018-09-10T20:16:58.147Z,4.23
2018-09-10T20:19:26.978Z,7.07
2018-09-10T20:21:57.329Z,4.73
2018-09-10T20:24:26.125Z,5.30
2018-09-10T20:26:54.929Z,4.43
2018-09-10T20:29:23.715Z,4.93
2018-09-10T20:31:52.434Z,7.00
2018-09-10T20:34:21.249Z,5.70
2018-09-10T20:36:50.306Z,5.03
2018-09-10T20:39:19.128Z,6.40
2018-09-10T20:41:47.920Z,4.57
2018-09-10T20:44:16.827Z,4.50
2018-09-10T20:46:45.967Z,5.13
2018-09-10T20:49:15.264Z,5.80
2018-09-10T20:51:44.064Z,5.17
2018-09-10T20:54:13.223Z,5.27
2018-09-10T20:56:41.953Z,4.60
2018-09-10T20:59:10.780Z,5.13
2018-09-10T21:01:39.633Z,5.60
2018-09-10T21:04:08.425Z,5.37
2018-09-10T21:06:43.894Z,6.60
2018-09-10T21:09:13.019Z,6.37
2018-09-10T21:11:42.074Z,5.40
2018-09-10T21:14:11.025Z,5.23
2018-09-10T21:16:39.838Z,6.70
2018-09-10T21:19:08.769Z,5.77
2018-09-10T21:21:37.620Z,6.63
2018-09-10T21:24:06.506Z,6.50
2018-09-10T21:26:35.549Z,8.63
2018-09-10T21:29:04.899Z,6.57
2018-09-10T21:31:33.935Z,6.07
2018-09-10T21:34:02.972Z,7.27
2018-09-10T21:36:32.068Z,7.80
2018-09-10T21:39:06.582Z,4.90
2018-09-10T21:41:35.345Z,6.97
2018-09-10T21:44:04.321Z,5.93
2018-09-10T21:46:33.187Z,6.63
2018-09-10T21:49:02.184Z,5.00
2018-09-10T21:51:31.045Z,7.33
2018-09-10T21:54:00.053Z,6.63
2018-09-10T21:56:28.926Z,8.20
2018-09-10T21:58:57.806Z,7.30
2018-09-10T22:01:27.130Z,5.30
2018-09-10T22:03:55.952Z,5.43
2018-09-10T22:06:25.672Z,4.67
2018-09-10T22:09:10.415Z,4.73
2018-09-10T22:11:45.342Z,6.77
2018-09-10T22:14:14.195Z,6.77
2018-09-10T22:16:43.155Z,8.47
2018-09-10T22:19:12.242Z,6.63
2018-09-10T22:21:41.149Z,6.63
2018-09-10T22:24:10.000Z,6.13
2018-09-10T22:26:38.964Z,5.53
2018-09-10T22:29:07.908Z,7.30
2018-09-10T22:31:36.750Z,5.23
2018-09-10T22:34:05.660Z,5.73
2018-09-10T22:36:34.513Z,5.67
2018-09-10T22:39:03.692Z,5.60
2018-09-10T22:42:08.513Z,5.33
2018-09-10T22:44:37.233Z,8.47
2018-09-10T22:47:06.217Z,4.23
2018-09-10T22:49:34.945Z,7.10
2018-09-10T22:52:03.684Z,8.17
2018-09-10T22:54:32.754Z,5.07
2018-09-10T22:57:01.887Z,6.43
2018-09-10T22:59:30.770Z,4.70
2018-09-10T23:01:59.655Z,6.53
2018-09-10T23:04:28.453Z,7.07
2018-09-10T23:07:10.787Z,5.03
2018-09-10T23:09:39.631Z,6.93
2018-09-10T23:12:08.415Z,9.37
2018-09-10T23:14:37.119Z,6.17
2018-09-10T23:17:05.890Z,5.57
2018-09-10T23:19:34.616Z,6.70
2018-09-10T23:22:03.428Z,6.20
2018-09-10T23:24:32.219Z,7.57
2018-09-10T23:27:00.937Z,7.63
2018-09-10T23:29:29.724Z,8.67
2018-09-10T23:31:58.417Z,6.17
2018-09-10T23:34:27.060Z,7.53
2018-09-10T23:36:55.686Z,8.03
2018-09-10T23:39:24.464Z,4.90
2018-09-10T23:41:53.781Z,7.23
2018-09-10T23:44:22.447Z,6.07
2018-09-10T23:46:51.063Z,7.57
2018-09-10T23:49:19.832Z,8.20
2018-09-10T23:51:48.435Z,6.10
2018-09-10T23:54:17.101Z,9.30
2018-09-10T23:56:45.755Z,9.63
2018-09-10T23:59:14.527Z,9.07
